Time;durP1;ratioP1;P1;durP2;ratioP2;P2;SDS_P1;SDS_P2;PMS_P1;PMS_P2;Temp;Humidity;BMP_temperature;BMP_pressure;BME280_temperature;BME280_humidity;BME280_pressure;Samples;Min_cycle;Max_cycle;Signal;HPM_P1;HPM_P2
2023/01/18 00:01:12;;;;;;;5.75;3.67;;;5.70;69.10;;;;;;2331807;53;20956;-72
2023/01/18 00:03:38;;;;;;;5.70;3.42;;;5.80;69.10;;;;;;2332567;53;21881;-72
2023/01/18 00:06:08;;;;;;;6.87;4.25;;;5.70;69.10;;;;;;2331884;53;20932;-71
2023/01/18 00:08:35;;;;;;;4.97;2.75;;;5.80;69.20;;;;;;2332147;53;21458;-74
2023/01/18 00:11:12;;;;;;;5.15;3.10;;;5.70;69.20;;;;;;2505609;53;21004;-71
2023/01/18 00:13:38;;;;;;;5.97;3.72;;;5.70;69.10;;;;;;2336594;53;20996;-71
2023/01/18 00:16:07;;;;;;;5.60;3.35;;;5.80;69.40;;;;;;2437481;53;21411;-73
2023/01/18 00:18:36;;;;;;;4.40;2.45;;;5.70;69.30;;;;;;2334812;53;21036;-71
2023/01/18 00:21:04;;;;;;;5.05;2.83;;;5.70;69.30;;;;;;2333037;53;22585;-74
2023/01/18 00:23:31;;;;;;;4.62;2.83;;;5.80;69.30;;;;;;2395886;53;20969;-74
2023/01/18 00:26:05;;;;;;;4.80;2.65;;;5.80;69.30;;;;;;2576980;53;21103;-74
2023/01/18 00:28:32;;;;;;;5.10;2.97;;;5.80;69.10;;;;;;2331739;53;20949;-74
2023/01/18 00:30:58;;;;;;;4.43;2.40;;;5.70;69.10;;;;;;2372649;53;20984;-72
2023/01/18 00:33:25;;;;;;;4.87;2.83;;;5.70;69.00;;;;;;2331514;53;21008;-74
2023/01/18 00:35:59;;;;;;;4.03;2.20;;;5.70;69.10;;;;;;2331536;53;20957;-72
2023/01/18 00:38:26;;;;;;;5.00;2.58;;;5.70;69.00;;;;;;2331695;53;21295;-72
2023/01/18 00:40:52;;;;;;;4.80;2.50;;;5.70;69.10;;;;;;2478007;53;21363;-71
2023/01/18 00:43:37;;;;;;;6.40;3.45;;;5.70;69.10;;;;;;2336660;53;20948;-72
2023/01/18 00:46:11;;;;;;;6.62;3.78;;;5.70;69.10;;;;;;2330948;53;21485;-73
2023/01/18 00:48:38;;;;;;;6.30;3.60;;;5.70;69.20;;;;;;2331660;53;20920;-74
2023/01/18 00:51:05;;;;;;;6.93;3.83;;;5.70;69.40;;;;;;2330823;53;21071;-73
2023/01/18 00:53:32;;;;;;;7.62;4.40;;;5.70;69.40;;;;;;2331602;53;21312;-74
2023/01/18 00:55:58;;;;;;;8.25;4.53;;;5.70;69.40;;;;;;2331288;53;20953;-73
2023/01/18 00:58:25;;;;;;;8.80;4.78;;;5.70;69.40;;;;;;2576892;53;21071;-70
2023/01/18 01:00:52;;;;;;;6.57;3.72;;;5.70;69.40;;;;;;2331333;53;21551;-71
2023/01/18 01:03:19;;;;;;;7.25;4.20;;;5.70;69.40;;;;;;2331483;53;21055;-73
2023/01/18 01:08:30;;;;;;;9.75;4.00;;;5.70;69.40;;;;;;2331703;53;20956;-74
2023/01/18 01:11:30;;;;;;;7.18;4.05;;;5.70;69.40;;;;;;2330395;53;21032;-73
2023/01/18 01:27:39;;;;;;;10.48;5.18;;;5.70;69.40;;;;;;2331565;53;21359;-73
2023/01/18 01:30:07;;;;;;;9.90;5.50;;;5.70;69.40;;;;;;2575854;53;21391;-73
2023/01/18 01:32:34;;;;;;;11.88;5.45;;;5.60;69.30;;;;;;2576446;53;21351;-74
2023/01/18 01:35:00;;;;;;;9.98;5.35;;;5.60;69.30;;;;;;2331356;53;20945;-74
2023/01/18 01:37:26;;;;;;;8.30;4.75;;;5.60;69.40;;;;;;2577050;53;21000;-74
2023/01/18 01:39:53;;;;;;;11.20;5.80;;;5.60;69.50;;;;;;2331212;53;21528;-73
2023/01/18 01:42:19;;;;;;;7.93;4.28;;;5.60;69.40;;;;;;2331327;53;20928;-74
2023/01/18 01:44:48;;;;;;;9.02;4.90;;;5.60;69.40;;;;;;2331330;53;21000;-73
2023/01/18 01:48:15;;;;;;;7.20;3.87;;;5.60;69.40;;;;;;2331205;53;21232;-72
2023/01/18 01:50:41;;;;;;;8.15;4.05;;;5.70;69.10;;;;;;2331847;53;20956;-71
2023/01/18 01:53:08;;;;;;;7.93;4.10;;;5.70;69.50;;;;;;2331257;53;20927;-74
2023/01/18 01:55:36;;;;;;;7.18;3.65;;;5.70;69.50;;;;;;2331717;53;21036;-74
2023/01/18 01:58:20;;;;;;;8.40;3.95;;;5.70;69.60;;;;;;2330914;53;21268;-73
2023/01/18 02:00:46;;;;;;;6.65;3.45;;;5.70;69.30;;;;;;2331657;53;21568;-72
2023/01/18 02:03:16;;;;;;;6.97;3.40;;;5.60;69.40;;;;;;2386737;53;20936;-73
2023/01/18 02:05:44;;;;;;;7.32;3.80;;;5.70;69.50;;;;;;2576635;53;20936;-72
2023/01/18 02:08:11;;;;;;;7.35;3.87;;;5.60;69.40;;;;;;2355904;53;21466;-73
2023/01/18 02:10:37;;;;;;;6.50;3.62;;;5.60;69.40;;;;;;2577000;53;21324;-73
2023/01/18 02:13:04;;;;;;;7.87;4.28;;;5.60;69.40;;;;;;2330991;53;22145;-73
2023/01/18 02:15:43;;;;;;;7.95;4.18;;;5.60;69.40;;;;;;2331545;53;21560;-75
2023/01/18 02:18:20;;;;;;;7.15;4.00;;;5.70;69.40;;;;;;2384093;53;20936;-75
2023/01/18 02:22:43;;;;;;;7.43;4.62;;;5.60;69.30;;;;;;2334666;53;20952;-74
2023/01/18 02:25:51;;;;;;;7.75;3.90;;;5.70;68.70;;;;;;2463897;53;20913;-74
2023/01/18 02:28:33;;;;;;;7.65;4.15;;;5.70;69.10;;;;;;2370811;53;21240;-75
2023/01/18 02:32:38;;;;;;;7.47;4.18;;;5.60;69.20;;;;;;2331431;53;20944;-74
2023/01/18 02:35:13;;;;;;;9.25;4.50;;;5.70;68.80;;;;;;2330676;53;20952;-72
2023/01/18 02:37:48;;;;;;;10.10;5.00;;;5.60;69.20;;;;;;2331403;53;21682;-73
2023/01/18 02:40:29;;;;;;;9.68;4.43;;;5.60;69.30;;;;;;2527658;53;20944;-75
2023/01/18 02:48:31;;;;;;;8.32;4.55;;;5.60;69.50;;;;;;2331583;53;20948;-74
2023/01/18 02:50:57;;;;;;;9.38;4.78;;;5.60;69.50;;;;;;2346567;53;21536;-75
2023/01/18 02:53:24;;;;;;;9.98;4.90;;;5.60;69.60;;;;;;2331650;53;21894;-74
2023/01/18 02:55:58;;;;;;;9.05;4.43;;;5.60;69.70;;;;;;2331261;53;21429;-75
2023/01/18 02:58:33;;;;;;;7.05;4.32;;;5.60;69.70;;;;;;2331258;53;20944;-74
2023/01/18 03:01:06;;;;;;;7.90;4.50;;;5.60;69.70;;;;;;2331092;53;20933;-73
2023/01/18 03:03:32;;;;;;;10.18;5.18;;;5.60;69.70;;;;;;2351317;53;21391;-75
2023/01/18 03:06:00;;;;;;;11.40;5.68;;;5.60;69.80;;;;;;2576077;53;20957;-71
2023/01/18 03:08:37;;;;;;;9.57;5.07;;;5.60;69.80;;;;;;2331571;53;21847;-74
2023/01/18 03:11:58;;;;;;;9.77;5.47;;;5.60;69.70;;;;;;2331386;53;21410;-72
2023/01/18 03:15:19;;;;;;;8.05;4.60;;;5.70;69.30;;;;;;2562288;53;21443;-71
2023/01/18 03:17:50;;;;;;;8.45;4.15;;;5.70;69.20;;;;;;2378833;53;21019;-72
2023/01/18 03:20:24;;;;;;;7.30;3.97;;;5.70;69.60;;;;;;2359763;53;21387;-74
2023/01/18 03:26:01;;;;;;;8.52;4.32;;;5.60;69.20;;;;;;2455226;53;20948;-72
2023/01/18 03:34:44;;;;;;;6.57;4.10;;;5.70;69.40;;;;;;2331247;53;20957;-72
2023/01/18 03:37:14;;;;;;;5.72;2.95;;;5.60;69.20;;;;;;2331061;53;21512;-74
2023/01/18 03:39:43;;;;;;;6.45;3.37;;;5.60;69.20;;;;;;2331600;53;21734;-71
2023/01/18 03:42:19;;;;;;;5.95;3.30;;;5.60;69.10;;;;;;2331603;53;20921;-75
2023/01/18 03:45:29;;;;;;;6.30;3.22;;;5.60;69.00;;;;;;2404055;53;21483;-73
2023/01/18 03:47:56;;;;;;;5.72;3.28;;;5.60;68.90;;;;;;2331232;53;21063;-71
2023/01/18 03:50:59;;;;;;;7.03;3.30;;;5.50;69.00;;;;;;2566825;53;21424;-74
2023/01/18 03:53:31;;;;;;;5.80;3.25;;;5.50;69.10;;;;;;2331311;53;21970;-74
2023/01/18 03:56:01;;;;;;;6.30;3.40;;;5.50;69.10;;;;;;2331016;53;21822;-72
2023/01/18 03:58:34;;;;;;;6.37;3.65;;;5.50;69.10;;;;;;2331236;53;20992;-70
2023/01/18 04:01:02;;;;;;;6.62;3.70;;;5.50;69.10;;;;;;2347004;53;21448;-73
2023/01/18 04:03:33;;;;;;;7.60;3.70;;;5.40;68.90;;;;;;2331372;53;20972;-75
2023/01/18 04:06:03;;;;;;;5.87;3.55;;;5.40;68.90;;;;;;2330769;53;20944;-72
2023/01/18 04:08:30;;;;;;;5.68;3.25;;;5.40;68.90;;;;;;2331373;53;20964;-70
2023/01/18 04:10:56;;;;;;;7.85;4.37;;;5.40;68.90;;;;;;2331117;53;21063;-75
2023/01/18 04:13:22;;;;;;;7.47;4.10;;;5.40;68.90;;;;;;2575884;53;20941;-70
2023/01/18 04:15:48;;;;;;;6.22;3.60;;;5.30;68.80;;;;;;2331442;53;21485;-74
2023/01/18 04:18:15;;;;;;;6.93;3.87;;;5.30;68.90;;;;;;2331107;53;20921;-75
2023/01/18 04:20:41;;;;;;;7.12;3.90;;;5.30;69.00;;;;;;2426538;53;21904;-71
2023/01/18 04:23:07;;;;;;;7.07;4.30;;;5.30;68.90;;;;;;2564223;53;21923;-71
2023/01/18 04:25:34;;;;;;;6.55;3.87;;;5.30;68.90;;;;;;2471263;53;20964;-74
2023/01/18 04:28:00;;;;;;;6.60;3.25;;;5.20;68.80;;;;;;2330674;53;20960;-75
2023/01/18 04:30:26;;;;;;;7.68;3.78;;;5.20;68.90;;;;;;2330691;53;20988;-74
2023/01/18 04:32:53;;;;;;;8.05;4.05;;;5.20;69.10;;;;;;2331058;53;21897;-73
2023/01/18 04:35:19;;;;;;;6.95;3.60;;;5.20;69.10;;;;;;2575198;53;21451;-71
2023/01/18 04:37:50;;;;;;;8.55;3.28;;;5.20;69.20;;;;;;2331137;53;21379;-72
2023/01/18 04:40:17;;;;;;;7.03;3.33;;;5.20;69.40;;;;;;2308620;54;20948;-75
2023/01/18 04:42:43;;;;;;;5.90;3.35;;;5.20;69.40;;;;;;2331259;53;20947;-74
2023/01/18 04:45:12;;;;;;;5.18;2.87;;;5.20;69.50;;;;;;2331475;53;20925;-73
2023/01/18 04:47:39;;;;;;;6.12;3.30;;;5.20;69.60;;;;;;2345638;53;20985;-73
2023/01/18 04:50:07;;;;;;;7.18;3.95;;;5.20;69.60;;;;;;2576710;53;20928;-72
2023/01/18 04:52:33;;;;;;;6.65;3.47;;;5.20;69.70;;;;;;2331786;53;21975;-73
2023/01/18 04:54:59;;;;;;;6.93;3.60;;;5.20;69.70;;;;;;2331821;53;20937;-72
2023/01/18 04:57:26;;;;;;;8.05;3.90;;;5.20;69.70;;;;;;2331338;53;20999;-72
2023/01/18 04:59:52;;;;;;;7.35;3.67;;;5.20;69.70;;;;;;2347664;53;21032;-76
2023/01/18 05:02:19;;;;;;;7.28;3.80;;;5.30;69.80;;;;;;2577103;53;20975;-75
2023/01/18 05:04:45;;;;;;;7.07;3.90;;;5.30;69.70;;;;;;2334025;53;21019;-72
2023/01/18 05:07:12;;;;;;;7.40;4.12;;;5.20;69.60;;;;;;2330643;53;20923;-73
2023/01/18 05:09:42;;;;;;;6.53;4.00;;;5.30;69.60;;;;;;2309978;53;20948;-73
2023/01/18 05:12:11;;;;;;;7.03;3.80;;;5.20;69.40;;;;;;2332154;53;21012;-72
2023/01/18 05:14:38;;;;;;;6.97;3.90;;;5.20;69.40;;;;;;2552081;53;21025;-73
2023/01/18 05:17:06;;;;;;;7.62;3.85;;;5.20;69.40;;;;;;2331191;54;21012;-75
2023/01/18 05:19:32;;;;;;;7.50;3.60;;;5.20;69.40;;;;;;2335988;53;20964;-73
2023/01/18 05:21:59;;;;;;;8.32;4.35;;;5.20;69.40;;;;;;2339607;53;20988;-71
2023/01/18 05:24:26;;;;;;;8.20;4.57;;;5.20;69.40;;;;;;2331140;53;21024;-74
2023/01/18 05:26:55;;;;;;;8.02;4.30;;;5.20;69.40;;;;;;2330772;53;21383;-71
2023/01/18 05:29:21;;;;;;;7.65;4.05;;;5.20;69.40;;;;;;2331100;53;21091;-72
2023/01/18 05:31:48;;;;;;;10.00;4.87;;;5.20;69.40;;;;;;2331421;53;21213;-73
2023/01/18 05:34:14;;;;;;;8.02;4.43;;;5.20;69.40;;;;;;2481155;54;21387;-73
2023/01/18 05:36:41;;;;;;;8.18;5.22;;;5.20;69.40;;;;;;2331248;53;21036;-72
2023/01/18 05:39:08;;;;;;;10.48;5.45;;;5.20;69.40;;;;;;2331529;53;21636;-74
2023/01/18 05:41:34;;;;;;;8.32;3.80;;;5.20;69.40;;;;;;2330915;53;20984;-74
2023/01/18 05:44:00;;;;;;;8.02;4.60;;;5.20;69.40;;;;;;2506933;53;20988;-73
2023/01/18 05:46:26;;;;;;;8.70;4.37;;;5.20;69.40;;;;;;2331114;53;20928;-71
2023/01/18 05:48:57;;;;;;;8.93;4.87;;;5.10;69.40;;;;;;2331098;53;21064;-73
2023/01/18 05:51:23;;;;;;;8.10;4.85;;;5.10;69.30;;;;;;2331160;53;21385;-73
2023/01/18 05:53:49;;;;;;;9.25;4.93;;;5.10;69.40;;;;;;2524046;53;21343;-72
2023/01/18 05:56:16;;;;;;;9.13;4.80;;;5.10;69.40;;;;;;2330983;53;20937;-73
2023/01/18 05:58:42;;;;;;;8.65;5.45;;;5.10;69.40;;;;;;2536957;53;20968;-72
2023/01/18 06:01:09;;;;;;;10.48;5.37;;;5.10;69.30;;;;;;2331751;53;21909;-73
2023/01/18 06:03:35;;;;;;;9.70;4.50;;;5.10;69.30;;;;;;2340082;53;21552;-74
2023/01/18 06:06:02;;;;;;;8.98;5.07;;;5.10;69.40;;;;;;2576111;53;20969;-73
2023/01/18 06:08:28;;;;;;;10.13;5.03;;;5.10;69.40;;;;;;2331264;53;21040;-73
2023/01/18 06:10:56;;;;;;;9.40;4.65;;;5.10;69.40;;;;;;2331200;53;21540;-74
2023/01/18 06:13:22;;;;;;;10.40;5.20;;;5.10;69.50;;;;;;2331521;53;21022;-73
2023/01/18 06:15:49;;;;;;;10.60;4.37;;;5.00;69.50;;;;;;2331340;53;21351;-74
2023/01/18 06:18:16;;;;;;;7.15;4.20;;;5.10;69.50;;;;;;2374692;53;21471;-72
2023/01/18 06:20:42;;;;;;;8.50;4.70;;;5.10;69.50;;;;;;2331469;53;21434;-72
2023/01/18 06:23:08;;;;;;;8.38;4.25;;;5.00;69.40;;;;;;2350375;53;20972;-74
2023/01/18 06:25:34;;;;;;;8.40;4.30;;;5.00;69.30;;;;;;2330859;53;21016;-76
2023/01/18 06:28:03;;;;;;;8.90;4.25;;;5.10;69.40;;;;;;2330661;53;20934;-74
2023/01/18 06:30:30;;;;;;;8.52;4.47;;;5.00;69.30;;;;;;2331371;53;21462;-76
2023/01/18 06:32:57;;;;;;;8.90;3.80;;;5.00;69.30;;;;;;2331215;53;21453;-71
2023/01/18 06:35:24;;;;;;;11.05;4.53;;;5.00;69.40;;;;;;2330954;53;21004;-73
2023/01/18 06:37:51;;;;;;;7.82;3.62;;;5.00;69.40;;;;;;2331394;53;21221;-72
2023/01/18 06:40:17;;;;;;;8.90;4.28;;;5.00;69.40;;;;;;2331692;53;21294;-76
2023/01/18 06:42:47;;;;;;;7.18;3.95;;;5.00;69.50;;;;;;2331486;53;21402;-76
2023/01/18 06:45:15;;;;;;;7.55;3.75;;;5.00;69.50;;;;;;2331411;53;20929;-72
2023/01/18 06:47:42;;;;;;;9.73;3.70;;;5.00;69.60;;;;;;2487897;53;21224;-71
2023/01/18 06:50:10;;;;;;;7.45;3.55;;;4.90;69.40;;;;;;2331854;53;21602;-75
2023/01/18 06:52:36;;;;;;;5.70;2.97;;;5.00;69.60;;;;;;2333525;53;21578;-72
2023/01/18 06:55:03;;;;;;;5.68;3.03;;;5.00;69.60;;;;;;2398187;53;21503;-72
2023/01/18 06:57:30;;;;;;;7.87;4.25;;;5.00;69.50;;;;;;2356602;53;21473;-73
2023/01/18 06:59:56;;;;;;;6.72;2.80;;;5.00;69.30;;;;;;2331572;53;21541;-73
2023/01/18 07:02:22;;;;;;;4.97;2.70;;;4.90;69.20;;;;;;2454023;53;21737;-73
2023/01/18 07:04:48;;;;;;;5.97;2.70;;;4.90;69.20;;;;;;2517579;53;21351;-72
2023/01/18 07:07:14;;;;;;;5.60;2.75;;;4.90;69.30;;;;;;2331660;53;20974;-73
2023/01/18 07:09:41;;;;;;;7.53;2.78;;;4.90;69.30;;;;;;2330140;53;20952;-71
2023/01/18 07:12:07;;;;;;;6.20;3.47;;;4.90;69.40;;;;;;2331647;53;20941;-75
2023/01/18 07:14:34;;;;;;;8.10;3.55;;;4.90;69.40;;;;;;2452239;53;21546;-72
2023/01/18 07:17:00;;;;;;;6.68;3.40;;;4.90;69.40;;;;;;2447985;53;20968;-74
2023/01/18 07:19:26;;;;;;;8.15;3.90;;;4.80;69.30;;;;;;2331685;53;21228;-73
2023/01/18 07:21:52;;;;;;;6.85;3.42;;;4.80;69.40;;;;;;2395145;53;21549;-75
2023/01/18 07:24:19;;;;;;;6.95;3.30;;;4.80;69.40;;;;;;2331694;53;20961;-73
2023/01/18 07:26:45;;;;;;;6.22;3.00;;;4.90;69.40;;;;;;2383194;53;21332;-72
2023/01/18 07:29:12;;;;;;;5.40;2.65;;;4.80;69.40;;;;;;2338581;53;21063;-71
2023/01/18 07:31:39;;;;;;;4.97;2.62;;;4.80;69.50;;;;;;2331033;53;21476;-73
2023/01/18 07:34:06;;;;;;;6.05;2.90;;;4.90;69.60;;;;;;2331418;54;21451;-72
2023/01/18 07:36:32;;;;;;;5.55;3.03;;;4.80;69.60;;;;;;2377135;53;20960;-72
2023/01/18 07:39:01;;;;;;;6.28;3.10;;;4.90;69.70;;;;;;2331651;53;20916;-73
2023/01/18 07:41:28;;;;;;;5.35;3.00;;;4.80;69.60;;;;;;2331805;53;21419;-70
2023/01/18 07:43:56;;;;;;;6.15;3.20;;;4.90;69.70;;;;;;2334524;53;20940;-74
2023/01/18 07:46:24;;;;;;;6.75;2.78;;;4.90;69.70;;;;;;2331488;53;20948;-73
2023/01/18 07:48:51;;;;;;;5.93;2.92;;;4.90;69.70;;;;;;2331775;53;21232;-74
2023/01/18 07:51:18;;;;;;;7.43;3.15;;;4.90;69.70;;;;;;2331702;53;21111;-71
2023/01/18 07:53:44;;;;;;;6.80;3.10;;;4.90;69.60;;;;;;2576365;53;20948;-75
2023/01/18 07:56:12;;;;;;;5.75;2.65;;;4.90;69.60;;;;;;2331395;53;21338;-73
2023/01/18 07:58:38;;;;;;;7.03;3.25;;;4.90;69.60;;;;;;2331503;53;20999;-73
2023/01/18 08:01:12;;;;;;;5.22;2.78;;;4.90;69.60;;;;;;2338519;53;21044;-75
2023/01/18 08:03:40;;;;;;;6.37;3.28;;;4.90;69.70;;;;;;2331432;53;20968;-75
2023/01/18 08:06:07;;;;;;;7.07;2.80;;;4.90;69.60;;;;;;2332067;53;21355;-75
2023/01/18 08:08:34;;;;;;;5.37;2.58;;;4.90;69.50;;;;;;2309036;54;21083;-73
2023/01/18 08:11:00;;;;;;;5.85;3.12;;;4.90;69.40;;;;;;2372602;53;21263;-73
2023/01/18 08:13:27;;;;;;;7.30;2.90;;;4.80;69.40;;;;;;2331615;53;21389;-74
2023/01/18 08:15:54;;;;;;;5.90;2.80;;;4.90;70.20;;;;;;2576863;53;21458;-72
2023/01/18 08:18:20;;;;;;;6.45;3.37;;;4.90;69.50;;;;;;2331838;53;20960;-75
2023/01/18 08:20:47;;;;;;;6.10;3.30;;;4.90;69.50;;;;;;2332059;53;20928;-73
2023/01/18 08:23:14;;;;;;;7.65;4.07;;;4.90;69.50;;;;;;2325538;53;21798;-73
2023/01/18 08:25:40;;;;;;;6.87;3.58;;;4.90;69.60;;;;;;2568657;53;21279;-76
2023/01/18 08:28:07;;;;;;;6.82;3.60;;;4.90;69.70;;;;;;2360061;53;20960;-75
2023/01/18 08:30:35;;;;;;;7.78;4.00;;;4.90;69.80;;;;;;2331835;53;21060;-75
2023/01/18 08:33:02;;;;;;;9.52;4.57;;;4.90;69.80;;;;;;2331485;53;21359;-75
2023/01/18 08:35:29;;;;;;;7.90;4.00;;;4.90;69.90;;;;;;2331693;53;21456;-75
2023/01/18 08:37:57;;;;;;;9.48;3.92;;;4.90;70.00;;;;;;2377509;53;21521;-72
2023/01/18 08:40:24;;;;;;;6.85;3.85;;;4.90;70.00;;;;;;2332289;53;21427;-73
2023/01/18 08:42:58;;;;;;;5.25;2.75;;;4.90;70.10;;;;;;2487850;53;21477;-76
2023/01/18 08:45:26;;;;;;;6.05;3.37;;;5.00;70.10;;;;;;2388913;53;21440;-73
2023/01/18 08:48:09;;;;;;;5.47;3.03;;;5.00;70.10;;;;;;2332014;53;21477;-76
2023/01/18 08:50:35;;;;;;;5.87;3.17;;;5.00;70.00;;;;;;2331706;53;21453;-74
2023/01/18 08:53:03;;;;;;;6.75;3.78;;;5.00;70.00;;;;;;2331891;53;20941;-76
2023/01/18 08:55:29;;;;;;;7.15;3.62;;;5.10;70.80;;;;;;2337299;53;20928;-74
2023/01/18 08:57:58;;;;;;;5.78;3.10;;;5.00;70.00;;;;;;2332181;53;21726;-76
2023/01/18 09:00:27;;;;;;;6.72;3.45;;;5.10;70.10;;;;;;2332746;53;21219;-76
2023/01/18 09:02:54;;;;;;;8.00;3.78;;;5.10;70.10;;;;;;2331979;53;21036;-74
2023/01/18 09:05:20;;;;;;;6.90;4.15;;;5.10;70.00;;;;;;2391980;53;21590;-74
2023/01/18 09:07:46;;;;;;;8.30;4.05;;;5.10;70.00;;;;;;2460348;53;21488;-75
2023/01/18 09:10:13;;;;;;;5.87;3.45;;;5.10;70.00;;;;;;2577353;53;21813;-75
2023/01/18 09:12:39;;;;;;;6.80;3.58;;;5.20;70.10;;;;;;2331696;53;21358;-76
2023/01/18 09:15:06;;;;;;;6.10;3.55;;;5.20;70.10;;;;;;2331718;53;20924;-75
2023/01/18 09:17:33;;;;;;;6.62;3.50;;;5.20;70.80;;;;;;2331750;53;20920;-73
2023/01/18 09:19:59;;;;;;;5.28;2.87;;;5.20;70.10;;;;;;2331912;53;21251;-74
2023/01/18 09:22:25;;;;;;;5.05;2.55;;;5.20;70.10;;;;;;2577753;53;21487;-75
2023/01/18 09:24:52;;;;;;;4.82;2.35;;;5.20;70.10;;;;;;2334840;53;20933;-73
2023/01/18 09:27:18;;;;;;;4.53;2.53;;;5.30;70.20;;;;;;2397124;53;21638;-74
2023/01/18 09:29:50;;;;;;;5.90;2.75;;;5.30;70.20;;;;;;2399096;53;21501;-74
2023/01/18 09:32:29;;;;;;;4.55;2.33;;;5.30;70.20;;;;;;2396313;53;20976;-76
2023/01/18 09:34:55;;;;;;;5.80;2.80;;;5.30;70.00;;;;;;2331530;53;21367;-74
2023/01/18 09:37:22;;;;;;;4.60;2.53;;;5.30;70.20;;;;;;2332072;53;20968;-76
2023/01/18 09:39:49;;;;;;;5.85;2.40;;;5.40;70.30;;;;;;2577138;53;22438;-73
2023/01/18 09:42:22;;;;;;;4.28;2.35;;;5.40;70.20;;;;;;2506688;53;21119;-74
2023/01/18 09:44:54;;;;;;;5.55;2.30;;;5.40;70.20;;;;;;2331664;53;21464;-75
2023/01/18 09:47:26;;;;;;;4.32;2.10;;;5.40;70.20;;;;;;2490876;53;21515;-73
2023/01/18 09:50:01;;;;;;;4.17;2.23;;;5.50;70.30;;;;;;2331965;53;20929;-74
2023/01/18 09:52:41;;;;;;;4.60;2.58;;;5.50;70.40;;;;;;2332356;53;21028;-75
2023/01/18 10:00:54;;;;;;;5.97;2.50;;;5.50;70.30;;;;;;2351202;53;21476;-74
2023/01/18 10:03:30;;;;;;;4.65;2.05;;;5.60;69.60;;;;;;2332062;54;21055;-75
2023/01/18 10:06:09;;;;;;;4.25;1.90;;;5.70;70.00;;;;;;2331705;53;21770;-76
2023/01/18 10:08:52;;;;;;;3.90;1.60;;;5.70;69.90;;;;;;2332824;53;20941;-75
2023/01/18 10:11:28;;;;;;;5.70;1.70;;;5.70;69.90;;;;;;2332745;53;21878;-76
2023/01/18 10:14:02;;;;;;;3.60;1.60;;;5.70;69.90;;;;;;2331536;53;20953;-76
2023/01/18 10:16:29;;;;;;;3.15;1.40;;;5.70;69.80;;;;;;2332476;53;21260;-75
2023/01/18 10:18:56;;;;;;;4.03;1.90;;;5.70;69.80;;;;;;2332025;53;21583;-76
2023/01/18 10:21:49;;;;;;;4.45;1.90;;;5.80;70.00;;;;;;2497382;53;21012;-75
2023/01/18 10:26:56;;;;;;;3.62;1.58;;;5.80;70.00;;;;;;2577114;53;21539;-75
2023/01/18 10:29:44;;;;;;;11.27;4.18;;;5.90;69.40;;;;;;2337170;53;21331;-75
2023/01/18 10:32:13;;;;;;;6.50;3.62;;;5.90;70.40;;;;;;2332555;53;20995;-76
2023/01/18 10:34:41;;;;;;;6.07;3.47;;;5.90;70.80;;;;;;2409533;53;21000;-76
2023/01/18 10:37:54;;;;;;;6.72;3.33;;;6.00;71.10;;;;;;2332199;53;20937;-76
2023/01/18 10:40:21;;;;;;;7.70;3.60;;;6.00;71.20;;;;;;2332700;53;21396;-76
2023/01/18 10:42:50;;;;;;;7.80;3.95;;;6.10;71.20;;;;;;2343930;53;21076;-77
2023/01/18 10:45:20;;;;;;;8.65;4.15;;;6.10;71.40;;;;;;2499655;53;21356;-76
2023/01/18 10:48:09;;;;;;;6.97;4.18;;;6.20;71.40;;;;;;2331808;53;21441;-76
2023/01/18 10:50:38;;;;;;;7.37;3.40;;;6.30;71.40;;;;;;2363643;53;20992;-76
2023/01/18 10:56:38;;;;;;;5.78;3.70;;;6.30;71.50;;;;;;2332492;53;21434;-76
2023/01/18 10:59:05;;;;;;;5.00;2.80;;;6.50;70.70;;;;;;2399366;53;21330;-77
2023/01/18 11:01:35;;;;;;;5.37;3.08;;;6.50;71.50;;;;;;2332318;53;21429;-76
2023/01/18 11:04:11;;;;;;;9.05;6.05;;;6.60;71.50;;;;;;2446665;53;22301;-76
2023/01/18 11:07:10;;;;;;;7.95;5.00;;;6.60;71.60;;;;;;2482598;53;20984;-76
2023/01/18 11:10:08;;;;;;;7.85;4.55;;;6.70;71.30;;;;;;2475657;53;21425;-76
2023/01/18 11:12:41;;;;;;;7.80;5.18;;;6.70;71.70;;;;;;2367526;53;21399;-74
2023/01/18 11:15:42;;;;;;;6.82;4.15;;;6.80;71.90;;;;;;2374423;53;20989;-76
2023/01/18 11:18:08;;;;;;;6.32;4.20;;;6.90;71.50;;;;;;2332460;53;21044;-75
2023/01/18 11:20:47;;;;;;;8.40;4.47;;;6.90;71.90;;;;;;2331534;53;21040;-76
2023/01/18 11:23:19;;;;;;;6.15;3.65;;;7.00;71.80;;;;;;2352646;53;20952;-75
2023/01/18 11:26:06;;;;;;;8.02;3.25;;;7.00;71.70;;;;;;2331638;53;20943;-76
2023/01/18 11:28:56;;;;;;;6.40;3.50;;;7.10;71.50;;;;;;2422574;53;21083;-76
2023/01/18 11:31:22;;;;;;;5.75;3.12;;;7.20;71.60;;;;;;2332389;53;21501;-77
2023/01/18 11:33:57;;;;;;;5.90;3.92;;;7.20;71.60;;;;;;2331642;53;21452;-76
2023/01/18 11:36:40;;;;;;;7.40;3.78;;;7.20;71.40;;;;;;2332262;53;20925;-76
2023/01/18 11:42:39;;;;;;;6.95;3.40;;;7.30;70.90;;;;;;2332349;53;21530;-76
2023/01/18 11:46:58;;;;;;;6.12;3.15;;;7.40;70.10;;;;;;2331353;53;20988;-76
2023/01/18 11:52:06;;;;;;;6.47;3.10;;;7.40;69.80;;;;;;2332538;53;21040;-76
2023/01/18 11:54:47;;;;;;;7.15;3.40;;;7.40;69.50;;;;;;2332563;53;21744;-76
2023/01/18 11:57:13;;;;;;;7.72;3.40;;;7.50;70.40;;;;;;2454435;53;20976;-75
2023/01/18 11:59:42;;;;;;;7.20;4.15;;;7.40;70.60;;;;;;2408173;53;21471;-75
2023/01/18 12:06:05;;;;;;;9.45;5.28;;;7.50;70.60;;;;;;2332260;53;21548;-76
2023/01/18 12:11:37;;;;;;;10.23;4.37;;;7.50;69.60;;;;;;2424636;53;21986;-76
2023/01/18 12:14:34;;;;;;;7.15;4.07;;;7.50;69.40;;;;;;2370695;53;21016;-75
2023/01/18 12:19:46;;;;;;;8.07;3.90;;;7.60;70.30;;;;;;2331992;53;20940;-76
2023/01/18 12:22:37;;;;;;;6.62;3.30;;;7.60;69.80;;;;;;2354487;53;21003;-76
2023/01/18 12:34:28;;;;;;;8.45;3.87;;;7.60;70.50;;;;;;2371512;53;21012;-76
2023/01/18 12:37:23;;;;;;;7.35;3.90;;;7.70;69.80;;;;;;2385484;53;22046;-76
2023/01/18 12:40:27;;;;;;;7.85;3.75;;;7.70;70.30;;;;;;2332430;53;20936;-76
2023/01/18 12:43:32;;;;;;;9.27;4.25;;;7.70;70.10;;;;;;2384238;53;21413;-77
2023/01/18 12:46:12;;;;;;;7.12;4.60;;;7.70;70.00;;;;;;2549564;53;20956;-75
2023/01/18 12:48:53;;;;;;;9.10;5.03;;;7.70;70.10;;;;;;2332920;53;21316;-77
2023/01/18 12:51:24;;;;;;;13.25;7.95;;;7.70;70.00;;;;;;2332482;53;21055;-76
2023/01/18 12:54:09;;;;;;;10.68;5.87;;;7.70;70.10;;;;;;2332082;53;20964;-76
2023/01/18 12:56:40;;;;;;;8.75;4.97;;;7.70;69.80;;;;;;2396223;53;20952;-76
2023/01/18 13:05:56;;;;;;;7.22;4.43;;;7.70;69.90;;;;;;2332325;53;20995;-76
2023/01/18 13:08:57;;;;;;;10.98;6.70;;;7.70;69.00;;;;;;2332865;53;20984;-75
2023/01/18 13:11:34;;;;;;;13.23;7.30;;;7.70;69.60;;;;;;2578284;53;20936;-75
2023/01/18 13:14:17;;;;;;;10.55;6.03;;;7.70;69.70;;;;;;2577148;53;21067;-75
2023/01/18 13:16:57;;;;;;;9.45;6.20;;;7.60;69.80;;;;;;2391629;53;21004;-76
2023/01/18 13:19:32;;;;;;;8.20;5.32;;;7.60;69.80;;;;;;2332444;53;21564;-76
2023/01/18 13:24:47;;;;;;;8.93;6.12;;;7.60;69.90;;;;;;2465553;53;20944;-77
2023/01/18 13:27:14;;;;;;;10.32;5.70;;;7.60;69.10;;;;;;2543413;53;21103;-76
2023/01/18 13:29:41;;;;;;;11.55;6.68;;;7.60;70.10;;;;;;2329545;53;20984;-75
2023/01/18 13:32:21;;;;;;;9.45;6.12;;;7.60;70.30;;;;;;2332146;53;20972;-76
2023/01/18 13:34:56;;;;;;;8.90;5.37;;;7.60;70.30;;;;;;2553795;53;21095;-75
2023/01/18 13:37:52;;;;;;;9.85;5.78;;;7.60;70.50;;;;;;2574567;53;21080;-76
2023/01/18 13:40:55;;;;;;;7.87;5.25;;;7.60;70.50;;;;;;2578211;53;22057;-77
2023/01/18 13:44:17;;;;;;;7.65;4.78;;;7.60;70.30;;;;;;2341547;53;21080;-77
2023/01/18 13:46:43;;;;;;;8.32;4.53;;;7.60;70.40;;;;;;2509494;53;20967;-76
2023/01/18 13:49:34;;;;;;;9.90;5.30;;;7.70;70.70;;;;;;2514503;53;21003;-77
2023/01/18 13:52:32;;;;;;;7.57;4.60;;;7.70;70.30;;;;;;2351045;53;20976;-76
2023/01/18 13:55:01;;;;;;;10.07;5.47;;;7.70;70.40;;;;;;2332220;53;20948;-76
2023/01/18 13:57:32;;;;;;;9.80;5.40;;;7.70;70.90;;;;;;2332385;54;20961;-77
2023/01/18 13:59:58;;;;;;;9.07;4.80;;;7.80;71.20;;;;;;2334426;53;21068;-77
2023/01/18 14:02:40;;;;;;;7.20;4.20;;;7.80;71.30;;;;;;2541097;53;20931;-77
2023/01/18 14:05:25;;;;;;;7.55;4.12;;;7.80;71.10;;;;;;2428839;53;20916;-77
2023/01/18 14:07:56;;;;;;;7.93;4.97;;;7.80;70.80;;;;;;2342605;53;20938;-75
2023/01/18 14:10:30;;;;;;;7.37;4.97;;;7.80;71.00;;;;;;2332625;53;21083;-77
2023/01/18 14:12:56;;;;;;;7.12;4.53;;;7.90;71.20;;;;;;2399060;53;20981;-77
2023/01/18 14:15:52;;;;;;;7.50;4.32;;;7.90;71.20;;;;;;2330933;53;20927;-77
2023/01/18 14:18:25;;;;;;;6.80;4.35;;;7.90;70.80;;;;;;2438703;53;20980;-77
2023/01/18 14:24:00;;;;;;;9.82;4.53;;;8.00;71.30;;;;;;2576432;53;20976;-77
2023/01/18 14:26:30;;;;;;;6.22;2.87;;;8.00;71.20;;;;;;2528366;53;21439;-77
2023/01/18 14:30:33;;;;;;;7.45;3.30;;;8.10;70.70;;;;;;2576657;53;20944;-77
2023/01/18 14:33:35;;;;;;;4.70;2.15;;;8.00;70.40;;;;;;2331427;53;21059;-77
2023/01/18 14:36:02;;;;;;;4.62;2.40;;;8.00;69.20;;;;;;2358391;53;21279;-77
2023/01/18 14:38:29;;;;;;;4.82;2.78;;;8.00;69.80;;;;;;2332123;53;21310;-77
2023/01/18 14:41:01;;;;;;;4.05;2.20;;;8.00;69.80;;;;;;2331353;53;21456;-77
2023/01/18 14:43:35;;;;;;;5.12;2.28;;;7.90;69.70;;;;;;2380679;53;20953;-76
2023/01/18 14:46:20;;;;;;;4.12;2.15;;;7.90;69.70;;;;;;2367717;53;20936;-77
2023/01/18 14:48:55;;;;;;;3.72;2.20;;;7.90;69.70;;;;;;2331833;53;20937;-76